Time;durP1;ratioP1;P1;durP2;ratioP2;P2;SDS_P1;SDS_P2;PMS_P1;PMS_P2;Temp;Humidity;BMP_temperature;BMP_pressure;BME280_temperature;BME280_humidity;BME280_pressure;Samples;Min_cycle;Max_cycle;Signal;HPM_P1;HPM_P2
2021/06/13 00:02:01;;;;;;;7.70;6.93;;;18.00;91.60;;;;;;5011216;28;20265;-76
2021/06/13 00:04:27;;;;;;;7.20;6.60;;;18.00;91.40;;;;;;5007135;28;20539;-76
2021/06/13 00:06:53;;;;;;;10.60;7.47;;;18.00;91.30;;;;;;4998795;28;20449;-78
2021/06/13 00:09:20;;;;;;;7.97;6.87;;;18.00;91.20;;;;;;5012783;28;20453;-76
2021/06/13 00:11:46;;;;;;;8.20;7.37;;;18.00;91.50;;;;;;5013117;28;20442;-77
2021/06/13 00:14:12;;;;;;;7.40;6.57;;;18.00;91.60;;;;;;5017789;28;20430;-76
2021/06/13 00:16:38;;;;;;;8.63;7.83;;;18.00;91.60;;;;;;5010591;28;20175;-76
2021/06/13 00:19:04;;;;;;;8.77;8.03;;;17.90;91.60;;;;;;5011941;28;20488;-76
2021/06/13 00:21:30;;;;;;;7.90;7.20;;;17.90;91.50;;;;;;5012299;28;20175;-76
2021/06/13 00:23:56;;;;;;;7.03;6.30;;;17.90;91.60;;;;;;5012182;28;20959;-76
2021/06/13 00:26:22;;;;;;;9.00;7.37;;;17.90;91.40;;;;;;5011403;28;20179;-76
2021/06/13 00:28:47;;;;;;;9.83;7.17;;;17.80;91.50;;;;;;5012397;28;20306;-75
2021/06/13 00:31:13;;;;;;;8.27;6.77;;;17.80;91.30;;;;;;5011726;28;20971;-76
2021/06/13 00:33:39;;;;;;;9.30;7.00;;;17.80;91.60;;;;;;5025272;28;20178;-75
2021/06/13 00:36:06;;;;;;;9.67;7.33;;;17.70;91.40;;;;;;5011127;28;20225;-77
2021/06/13 00:38:32;;;;;;;8.47;7.57;;;17.70;92.30;;;;;;5011496;28;20205;-75
2021/06/13 00:40:58;;;;;;;8.90;8.10;;;17.70;91.70;;;;;;5011133;28;20414;-77
2021/06/13 00:43:24;;;;;;;7.87;7.07;;;17.70;92.20;;;;;;5010427;28;20920;-75
2021/06/13 00:45:49;;;;;;;8.90;7.83;;;17.70;92.00;;;;;;5012662;28;20175;-78
2021/06/13 00:48:16;;;;;;;9.03;8.13;;;17.60;92.70;;;;;;5009797;28;20821;-77
2021/06/13 00:50:50;;;;;;;8.57;7.50;;;17.60;92.30;;;;;;5012035;28;20219;-76
2021/06/13 00:53:16;;;;;;;14.30;7.90;;;17.60;92.00;;;;;;4991219;28;20469;-76
2021/06/13 00:55:43;;;;;;;8.57;7.73;;;17.50;92.00;;;;;;4997256;28;20495;-76
2021/06/13 00:58:09;;;;;;;7.50;6.80;;;17.50;92.20;;;;;;5031529;28;20570;-76
2021/06/13 01:00:37;;;;;;;8.57;7.70;;;17.50;92.90;;;;;;5032326;28;20501;-75
2021/06/13 01:03:04;;;;;;;8.33;7.57;;;17.40;92.60;;;;;;5030183;28;20444;-76
2021/06/13 01:05:31;;;;;;;8.03;7.33;;;17.40;92.30;;;;;;5030828;28;20412;-75
2021/06/13 01:08:30;;;;;;;8.60;7.70;;;17.40;92.80;;;;;;5030068;28;20500;-75
2021/06/13 01:11:31;;;;;;;7.77;7.07;;;17.40;92.80;;;;;;5030303;28;20406;-76
2021/06/13 01:14:30;;;;;;;9.23;7.13;;;17.40;94.60;;;;;;5031261;28;20938;-75
2021/06/13 01:17:05;;;;;;;8.20;7.40;;;17.30;93.90;;;;;;4998096;28;20980;-75
2021/06/13 01:19:39;;;;;;;7.60;6.90;;;17.30;92.70;;;;;;5031966;28;20451;-75
2021/06/13 01:22:25;;;;;;;8.50;7.77;;;17.30;92.80;;;;;;5025982;28;20461;-75
2021/06/13 01:24:57;;;;;;;8.17;7.37;;;17.20;93.00;;;;;;5010998;28;20410;-75
2021/06/13 01:27:35;;;;;;;8.60;7.80;;;17.20;93.60;;;;;;5012284;28;20458;-75
2021/06/13 01:30:07;;;;;;;9.23;7.70;;;17.20;93.60;;;;;;5011496;28;20402;-75
2021/06/13 01:32:33;;;;;;;10.23;7.07;;;17.10;92.70;;;;;;5011161;28;20464;-75
2021/06/13 01:35:03;;;;;;;8.03;7.27;;;17.10;94.90;;;;;;5011429;28;20402;-75
2021/06/13 01:37:34;;;;;;;8.80;8.00;;;17.10;93.50;;;;;;5012064;28;20440;-74
2021/06/13 01:40:06;;;;;;;7.10;6.23;;;17.00;93.50;;;;;;5011399;28;20410;-75
2021/06/13 01:42:33;;;;;;;7.80;7.10;;;17.00;93.10;;;;;;5011879;28;20904;-75
2021/06/13 01:45:01;;;;;;;8.33;7.53;;;17.00;93.90;;;;;;5010233;28;20442;-75
2021/06/13 01:47:27;;;;;;;7.80;7.07;;;17.00;93.50;;;;;;5012010;28;20851;-74
2021/06/13 01:49:54;;;;;;;9.17;7.67;;;16.90;93.10;;;;;;5011683;28;20473;-77
2021/06/13 01:52:21;;;;;;;7.70;7.00;;;16.90;93.00;;;;;;5026607;28;20438;-75
2021/06/13 01:54:49;;;;;;;7.50;6.90;;;16.90;92.90;;;;;;5034625;28;20416;-75
2021/06/13 01:57:15;;;;;;;8.47;7.67;;;16.90;93.20;;;;;;5034485;28;20423;-74
2021/06/13 01:59:42;;;;;;;9.10;7.20;;;16.80;92.90;;;;;;5035425;28;20806;-74
2021/06/13 02:02:10;;;;;;;9.53;7.20;;;16.80;92.70;;;;;;5033491;28;20413;-75
2021/06/13 02:04:37;;;;;;;10.27;7.43;;;16.80;93.10;;;;;;5035346;28;20478;-74
2021/06/13 02:07:04;;;;;;;8.10;7.33;;;16.80;93.20;;;;;;5034329;28;20416;-75
2021/06/13 02:09:31;;;;;;;8.10;7.37;;;16.80;92.90;;;;;;5035200;28;20432;-74
2021/06/13 02:12:01;;;;;;;8.63;7.73;;;16.70;92.90;;;;;;5022938;28;20425;-77
2021/06/13 02:14:28;;;;;;;8.70;7.20;;;16.70;93.10;;;;;;5015580;28;20869;-75
2021/06/13 02:16:54;;;;;;;8.60;7.70;;;16.70;93.20;;;;;;5015420;28;20418;-75
2021/06/13 02:19:23;;;;;;;7.93;7.20;;;16.70;93.20;;;;;;5014542;28;20418;-74
2021/06/13 02:21:59;;;;;;;13.60;8.10;;;16.70;93.10;;;;;;5014867;28;20512;-74
2021/06/13 02:24:37;;;;;;;12.53;7.47;;;16.70;93.20;;;;;;5014042;28;20412;-75
2021/06/13 02:27:07;;;;;;;8.83;7.70;;;16.70;93.10;;;;;;5014319;28;20418;-74
2021/06/13 02:29:34;;;;;;;8.37;7.10;;;16.70;93.50;;;;;;5015225;28;20501;-74
2021/06/13 02:32:01;;;;;;;10.77;8.20;;;16.70;93.40;;;;;;5014590;28;20500;-77
2021/06/13 02:34:30;;;;;;;7.70;7.00;;;16.60;93.50;;;;;;5014637;28;20410;-75
2021/06/13 02:36:59;;;;;;;9.97;7.03;;;16.60;93.40;;;;;;5014970;28;20418;-75
2021/06/13 02:39:25;;;;;;;7.73;7.13;;;16.60;93.20;;;;;;5015194;28;20520;-75
2021/06/13 02:41:51;;;;;;;11.47;7.33;;;16.60;93.40;;;;;;5013510;28;20925;-74
2021/06/13 02:44:18;;;;;;;9.67;7.60;;;16.60;93.40;;;;;;5012970;28;20179;-74
2021/06/13 02:46:45;;;;;;;10.00;7.47;;;16.60;92.90;;;;;;5014524;28;20413;-75
2021/06/13 02:49:11;;;;;;;9.10;8.20;;;16.60;93.00;;;;;;5013627;28;20490;-75
2021/06/13 02:51:51;;;;;;;8.13;7.53;;;16.50;92.90;;;;;;5026570;28;20483;-74
2021/06/13 02:54:19;;;;;;;9.90;7.70;;;16.50;93.00;;;;;;5032486;28;20421;-74
2021/06/13 02:56:54;;;;;;;9.00;7.80;;;16.40;93.20;;;;;;5034382;28;20424;-75
2021/06/13 02:59:48;;;;;;;8.03;7.30;;;16.50;93.70;;;;;;5033522;28;20415;-75
2021/06/13 03:02:21;;;;;;;10.30;8.53;;;16.40;93.50;;;;;;5033558;28;20405;-75
2021/06/13 03:04:47;;;;;;;10.47;9.40;;;16.40;93.40;;;;;;5033628;28;20413;-74
2021/06/13 03:07:17;;;;;;;9.30;8.40;;;16.30;93.20;;;;;;5031130;28;20425;-75
2021/06/13 03:09:44;;;;;;;10.00;8.80;;;16.30;93.60;;;;;;5032854;28;20432;-75
2021/06/13 03:12:11;;;;;;;10.63;8.63;;;16.30;93.70;;;;;;5033422;28;20401;-75
2021/06/13 03:14:40;;;;;;;9.07;8.27;;;16.30;93.60;;;;;;5034159;28;20393;-74
2021/06/13 03:17:07;;;;;;;9.93;8.93;;;16.30;93.70;;;;;;5033117;28;20424;-75
2021/06/13 03:19:34;;;;;;;9.20;8.30;;;16.20;93.80;;;;;;5034315;28;20459;-75
2021/06/13 03:22:03;;;;;;;9.47;8.57;;;16.20;94.10;;;;;;5033482;28;20507;-77
2021/06/13 03:24:30;;;;;;;9.83;8.40;;;16.20;94.10;;;;;;5033908;28;20467;-74
2021/06/13 03:26:56;;;;;;;10.53;8.70;;;16.20;93.50;;;;;;5033631;28;20441;-74
2021/06/13 03:29:24;;;;;;;10.07;9.10;;;16.20;93.70;;;;;;5015006;28;20480;-74
2021/06/13 03:31:51;;;;;;;8.87;8.00;;;16.10;93.30;;;;;;5033732;28;20413;-74
2021/06/13 03:34:17;;;;;;;9.00;8.20;;;16.10;93.70;;;;;;5032924;28;20419;-75
2021/06/13 03:36:43;;;;;;;9.07;7.83;;;16.10;94.00;;;;;;5033439;28;20428;-75
2021/06/13 03:39:11;;;;;;;10.20;8.43;;;16.00;94.10;;;;;;5032954;28;20441;-74
2021/06/13 03:41:37;;;;;;;9.53;8.70;;;16.00;93.80;;;;;;5032443;28;20507;-74
2021/06/13 03:44:03;;;;;;;9.10;8.30;;;16.00;94.30;;;;;;5032694;28;20419;-77
2021/06/13 03:46:29;;;;;;;9.50;8.70;;;16.00;94.40;;;;;;5033652;28;20416;-74
2021/06/13 03:48:56;;;;;;;8.53;7.73;;;16.00;94.40;;;;;;5031523;28;21060;-75
2021/06/13 03:51:25;;;;;;;12.63;8.90;;;16.00;94.30;;;;;;5032654;28;20603;-75
2021/06/13 03:54:00;;;;;;;8.70;7.90;;;15.90;94.30;;;;;;5033433;28;20424;-75
2021/06/13 03:56:37;;;;;;;11.23;8.60;;;16.00;94.80;;;;;;5032545;28;20412;-74
2021/06/13 03:59:04;;;;;;;8.07;7.37;;;16.00;94.60;;;;;;5032944;28;20865;-78
2021/06/13 04:01:31;;;;;;;11.43;8.30;;;16.00;94.60;;;;;;5018917;28;20432;-75
2021/06/13 04:03:58;;;;;;;9.53;8.40;;;15.90;95.20;;;;;;5013462;28;20515;-75
2021/06/13 04:06:25;;;;;;;10.33;9.07;;;15.90;94.60;;;;;;5012619;28;20440;-74
2021/06/13 04:08:52;;;;;;;12.00;9.53;;;16.00;95.00;;;;;;5013297;28;20815;-75
2021/06/13 04:11:19;;;;;;;9.20;8.33;;;16.00;95.40;;;;;;5012615;28;20421;-75
2021/06/13 04:13:47;;;;;;;13.97;12.00;;;16.00;95.20;;;;;;4996052;28;20512;-74
2021/06/13 04:16:14;;;;;;;10.43;9.43;;;15.90;95.10;;;;;;5012055;28;20425;-75
2021/06/13 04:18:42;;;;;;;12.10;9.87;;;15.90;94.90;;;;;;5013521;28;20900;-74
2021/06/13 04:21:10;;;;;;;9.37;8.43;;;15.90;95.30;;;;;;5023120;28;20515;-75
2021/06/13 04:23:38;;;;;;;10.53;9.10;;;15.90;95.40;;;;;;5032884;28;20430;-74
2021/06/13 04:26:04;;;;;;;10.50;9.60;;;15.90;95.50;;;;;;5032415;28;20451;-78
2021/06/13 04:28:30;;;;;;;11.87;9.17;;;16.00;95.60;;;;;;5032151;28;20493;-74
2021/06/13 04:31:02;;;;;;;10.23;8.57;;;16.00;95.60;;;;;;5032634;28;20427;-74
2021/06/13 04:33:29;;;;;;;9.37;8.47;;;16.00;95.60;;;;;;5030594;28;20780;-75
2021/06/13 04:35:55;;;;;;;10.53;8.93;;;16.00;95.60;;;;;;5032600;28;20451;-75
2021/06/13 04:38:20;;;;;;;10.13;9.00;;;16.10;95.80;;;;;;5031643;28;20412;-75
2021/06/13 04:40:46;;;;;;;11.27;9.70;;;16.10;95.70;;;;;;5020608;28;20173;-74
2021/06/13 04:43:12;;;;;;;10.80;8.60;;;16.20;95.90;;;;;;5011650;28;20261;-75
2021/06/13 04:45:38;;;;;;;9.60;8.30;;;16.20;95.70;;;;;;5011455;28;20222;-74
2021/06/13 04:48:06;;;;;;;10.43;9.40;;;16.20;95.40;;;;;;5012472;28;20206;-77
2021/06/13 04:50:38;;;;;;;10.13;9.03;;;16.30;95.80;;;;;;5012436;28;20472;-75
2021/06/13 04:53:47;;;;;;;11.40;10.20;;;16.30;95.60;;;;;;5012612;28;20414;-77
2021/06/13 04:56:26;;;;;;;9.67;8.53;;;16.30;95.20;;;;;;5007863;28;20433;-75
2021/06/13 04:58:52;;;;;;;9.40;8.50;;;16.30;95.20;;;;;;5012615;28;20436;-75
2021/06/13 05:01:18;;;;;;;12.50;10.07;;;16.30;95.00;;;;;;5012360;28;20518;-75
2021/06/13 05:03:44;;;;;;;12.80;9.87;;;16.30;94.80;;;;;;5011254;28;20186;-74
2021/06/13 05:06:10;;;;;;;10.90;9.77;;;16.30;94.60;;;;;;5011617;28;20415;-76
2021/06/13 05:08:39;;;;;;;10.53;9.53;;;16.30;95.00;;;;;;5012301;28;20547;-75
2021/06/13 05:11:04;;;;;;;13.20;10.43;;;16.40;96.00;;;;;;5030140;28;20424;-75
2021/06/13 05:13:30;;;;;;;14.03;10.17;;;16.50;96.40;;;;;;5031462;28;20873;-74
2021/06/13 05:15:56;;;;;;;13.30;10.43;;;16.50;96.20;;;;;;5030352;28;20186;-74
2021/06/13 05:18:22;;;;;;;12.77;10.43;;;16.60;97.00;;;;;;5012599;28;20193;-74
2021/06/13 05:20:52;;;;;;;12.50;10.90;;;16.60;96.40;;;;;;5012955;28;20224;-75
2021/06/13 05:23:19;;;;;;;14.10;11.37;;;16.60;97.40;;;;;;5018074;28;20576;-75
2021/06/13 05:25:50;;;;;;;12.27;10.70;;;16.70;95.90;;;;;;5027290;28;20424;-75
2021/06/13 05:28:16;;;;;;;15.60;12.00;;;16.80;95.50;;;;;;5018368;28;20537;-75
2021/06/13 05:30:42;;;;;;;16.83;12.43;;;16.90;94.70;;;;;;5016146;28;20971;-74
2021/06/13 05:33:08;;;;;;;12.90;11.37;;;16.80;94.30;;;;;;5035776;28;20405;-78
2021/06/13 05:35:35;;;;;;;13.33;11.93;;;16.90;96.90;;;;;;5023078;28;20414;-75
2021/06/13 05:38:01;;;;;;;16.30;12.70;;;17.00;96.20;;;;;;5016238;28;20412;-74
2021/06/13 05:40:29;;;;;;;14.23;11.77;;;17.00;96.00;;;;;;5032137;28;21234;-74
2021/06/13 05:42:55;;;;;;;14.50;11.73;;;17.00;95.40;;;;;;5035840;28;20174;-75
2021/06/13 05:45:26;;;;;;;14.40;11.17;;;17.10;94.60;;;;;;5024938;28;20453;-75
2021/06/13 05:47:52;;;;;;;12.90;11.00;;;16.90;93.20;;;;;;5014711;28;20527;-75
2021/06/13 05:50:19;;;;;;;11.60;10.50;;;16.80;94.00;;;;;;5018807;28;20563;-76
2021/06/13 05:52:45;;;;;;;14.20;10.93;;;16.80;94.20;;;;;;5016162;28;20414;-75
2021/06/13 05:55:12;;;;;;;12.37;10.83;;;16.80;93.70;;;;;;5014009;28;20465;-79
2021/06/13 05:57:38;;;;;;;12.67;9.93;;;16.80;94.00;;;;;;5014587;28;20410;-75
2021/06/13 06:00:08;;;;;;;14.27;10.03;;;16.90;95.20;;;;;;5015651;28;20437;-76
2021/06/13 06:02:35;;;;;;;10.03;8.83;;;17.00;96.90;;;;;;5032230;28;20478;-79
2021/06/13 06:05:01;;;;;;;10.70;8.60;;;17.10;95.80;;;;;;5035326;28;20409;-74
2021/06/13 06:07:27;;;;;;;9.93;8.40;;;17.20;99.30;;;;;;5025924;28;20953;-74
2021/06/13 06:09:53;;;;;;;11.33;9.40;;;17.30;99.90;;;;;;5020979;28;20431;-74
2021/06/13 06:12:19;;;;;;;8.43;7.60;;;17.50;99.90;;;;;;5034316;28;20248;-75
2021/06/13 06:14:45;;;;;;;9.20;7.83;;;17.60;99.90;;;;;;5020657;28;20249;-77
2021/06/13 06:17:11;;;;;;;10.80;8.17;;;17.80;99.90;;;;;;5012942;28;20179;-77
2021/06/13 06:19:37;;;;;;;8.87;7.53;;;17.90;98.30;;;;;;5030651;28;20494;-74
2021/06/13 06:22:04;;;;;;;9.77;7.40;;;18.00;97.60;;;;;;5018302;28;20417;-74
2021/06/13 06:24:30;;;;;;;10.90;8.47;;;18.10;98.30;;;;;;5033810;28;20440;-75
2021/06/13 06:26:56;;;;;;;7.67;6.97;;;18.10;97.60;;;;;;5034721;28;20425;-74
2021/06/13 06:29:22;;;;;;;10.67;6.80;;;18.20;99.90;;;;;;5034089;28;20467;-75
2021/06/13 06:31:48;;;;;;;8.97;7.20;;;18.30;96.10;;;;;;5027625;28;20426;-75
2021/06/13 06:34:14;;;;;;;8.27;6.33;;;18.30;93.70;;;;;;5012424;28;20437;-78
2021/06/13 06:36:40;;;;;;;7.43;6.67;;;18.30;94.80;;;;;;4995018;28;20194;-75
2021/06/13 06:39:06;;;;;;;9.63;7.47;;;18.30;93.00;;;;;;5021531;28;20908;-74
2021/06/13 06:41:32;;;;;;;8.30;6.60;;;18.40;98.00;;;;;;5034001;28;20718;-75
2021/06/13 06:43:57;;;;;;;7.20;6.50;;;18.60;98.70;;;;;;5034653;28;20244;-75
2021/06/13 06:46:24;;;;;;;8.10;7.30;;;18.70;96.10;;;;;;5033696;28;20177;-75
2021/06/13 06:48:50;;;;;;;10.13;7.03;;;18.80;97.80;;;;;;4993490;28;20289;-75
2021/06/13 06:51:16;;;;;;;7.70;6.90;;;19.00;97.40;;;;;;4994378;28;20419;-76
2021/06/13 06:53:41;;;;;;;7.67;6.50;;;19.10;96.50;;;;;;4994114;28;20427;-74
2021/06/13 06:56:07;;;;;;;7.50;6.80;;;19.20;94.70;;;;;;4993769;28;20179;-74
2021/06/13 06:58:33;;;;;;;8.60;6.43;;;19.20;96.80;;;;;;5011515;28;20322;-75
2021/06/13 07:00:59;;;;;;;11.00;6.70;;;19.20;92.50;;;;;;5015658;28;20525;-74
2021/06/13 07:03:25;;;;;;;7.97;5.90;;;19.20;89.80;;;;;;5013298;28;21040;-75
2021/06/13 07:05:51;;;;;;;6.53;5.93;;;19.20;88.90;;;;;;5014520;28;20201;-75
2021/06/13 07:08:17;;;;;;;7.13;6.50;;;19.20;84.80;;;;;;5013542;28;20209;-75
2021/06/13 07:10:42;;;;;;;7.23;6.60;;;19.00;86.50;;;;;;5013427;28;20414;-74
2021/06/13 07:13:09;;;;;;;13.17;7.10;;;19.10;89.00;;;;;;5014093;28;20179;-75
2021/06/13 07:15:35;;;;;;;7.07;6.43;;;19.00;89.30;;;;;;5012106;28;20171;-76
2021/06/13 07:18:01;;;;;;;7.37;6.30;;;19.50;99.90;;;;;;5014288;28;20422;-77
2021/06/13 07:20:26;;;;;;;6.67;6.07;;;20.00;99.90;;;;;;5013441;28;20277;-78
2021/06/13 07:22:52;;;;;;;6.73;6.00;;;20.30;99.90;;;;;;5014100;28;20187;-77
2021/06/13 07:25:18;;;;;;;7.90;5.97;;;20.70;97.40;;;;;;5017699;28;20626;-78
2021/06/13 07:27:44;;;;;;;8.33;6.53;;;21.00;96.40;;;;;;5020444;28;20214;-81
2021/06/13 07:30:12;;;;;;;7.23;6.60;;;21.20;89.50;;;;;;5018025;28;20532;-77
2021/06/13 07:32:39;;;;;;;7.60;6.87;;;21.40;90.10;;;;;;5013816;28;20187;-83
2021/06/13 07:35:07;;;;;;;8.03;7.23;;;21.50;83.70;;;;;;5033435;28;20515;-77
2021/06/13 07:37:33;;;;;;;7.50;6.80;;;21.80;94.80;;;;;;5029099;28;20770;-77
2021/06/13 07:39:58;;;;;;;7.00;6.30;;;21.90;89.10;;;;;;5013624;28;20425;-78
2021/06/13 07:42:24;;;;;;;6.63;6.03;;;22.00;90.30;;;;;;5011702;28;20186;-78
2021/06/13 07:44:51;;;;;;;9.67;6.60;;;22.20;88.10;;;;;;5026840;28;20645;-77
2021/06/13 07:47:18;;;;;;;7.70;7.10;;;22.30;90.50;;;;;;5013486;28;20538;-78
2021/06/13 07:49:44;;;;;;;7.03;6.27;;;22.50;86.20;;;;;;5012982;28;20484;-77
2021/06/13 07:52:11;;;;;;;7.13;5.20;;;22.60;88.20;;;;;;5012627;28;20425;-77
2021/06/13 07:54:37;;;;;;;6.87;6.27;;;22.70;81.50;;;;;;5012740;28;21040;-77
2021/06/13 07:57:03;;;;;;;8.13;6.20;;;22.80;84.60;;;;;;5013413;28;20451;-78
2021/06/13 07:59:28;;;;;;;6.57;6.00;;;22.90;90.80;;;;;;5012769;28;20203;-78
2021/06/13 08:01:54;;;;;;;5.97;5.37;;;23.00;89.20;;;;;;5012339;28;20820;-78
2021/06/13 08:04:20;;;;;;;7.20;6.00;;;23.10;89.10;;;;;;5009819;28;20171;-78
2021/06/13 08:06:46;;;;;;;6.70;6.03;;;22.90;66.10;;;;;;5012099;28;20195;-77
2021/06/13 08:09:12;;;;;;;6.53;5.40;;;22.40;68.60;;;;;;5011862;28;20481;-78
2021/06/13 08:11:38;;;;;;;7.50;6.10;;;22.60;88.20;;;;;;5012190;28;20241;-77
2021/06/13 08:14:03;;;;;;;7.43;5.33;;;22.70;90.30;;;;;;5012929;28;20170;-78
2021/06/13 08:16:29;;;;;;;7.83;7.07;;;22.90;92.30;;;;;;5010781;28;20638;-78
2021/06/13 08:18:55;;;;;;;181.47;156.80;;;23.10;92.20;;;;;;5006163;28;20194;-78
2021/06/13 08:21:21;;;;;;;22.20;16.47;;;23.10;73.10;;;;;;4998954;28;20229;-78
2021/06/13 08:23:48;;;;;;;18.83;15.20;;;22.90;73.50;;;;;;5012707;28;20634;-78
2021/06/13 08:26:14;;;;;;;114.70;90.67;;;22.00;66.50;;;;;;5005639;28;20437;-77
2021/06/13 08:28:41;;;;;;;22.90;19.50;;;21.60;69.40;;;;;;4994396;28;20453;-79
2021/06/13 08:31:07;;;;;;;14.20;12.63;;;21.60;80.50;;;;;;5012300;28;20422;-79
2021/06/13 08:33:32;;;;;;;25.97;21.40;;;21.60;73.80;;;;;;5014114;28;20423;-78
2021/06/13 08:35:59;;;;;;;25.13;20.53;;;21.60;85.60;;;;;;5019414;28;20175;-78
2021/06/13 08:38:25;;;;;;;10.77;7.50;;;21.60;82.40;;;;;;5011837;28;20183;-82
2021/06/13 08:40:51;;;;;;;10.03;8.53;;;21.80;79.80;;;;;;5011408;28;20765;-80
2021/06/13 08:43:18;;;;;;;12.43;8.70;;;21.90;76.60;;;;;;5012779;28;20171;-80
2021/06/13 08:45:44;;;;;;;7.00;6.50;;;22.20;79.10;;;;;;5006615;28;20505;-78
2021/06/13 08:48:13;;;;;;;9.10;8.30;;;22.00;69.30;;;;;;5007667;28;20485;-79
2021/06/13 08:50:39;;;;;;;7.57;6.17;;;21.40;66.40;;;;;;5011339;28;20473;-79
2021/06/13 08:53:05;;;;;;;8.23;7.20;;;21.60;69.80;;;;;;5012293;28;20446;-79
2021/06/13 08:55:32;;;;;;;8.77;8.00;;;21.80;73.00;;;;;;5011699;28;20418;-81
2021/06/13 08:57:59;;;;;;;7.13;6.43;;;22.00;74.20;;;;;;5010697;28;20824;-80
2021/06/13 09:00:30;;;;;;;7.90;6.57;;;22.20;71.40;;;;;;5011542;28;20433;-81
2021/06/13 09:02:57;;;;;;;10.07;9.07;;;22.40;75.40;;;;;;4998742;28;20775;-81
2021/06/13 09:05:25;;;;;;;8.53;6.67;;;22.70;86.30;;;;;;4996915;28;20537;-82
2021/06/13 09:08:07;;;;;;;7.80;7.07;;;22.90;80.10;;;;;;5000543;28;20821;-82
2021/06/13 09:10:34;;;;;;;7.50;6.83;;;23.10;74.00;;;;;;5000024;28;20443;-83
2021/06/13 09:13:25;;;;;;;7.50;6.80;;;23.20;65.00;;;;;;5015095;28;20427;-82
2021/06/13 09:15:51;;;;;;;7.80;6.93;;;22.90;64.10;;;;;;5032146;28;20860;-82
2021/06/13 09:18:30;;;;;;;31.27;26.70;;;22.70;64.70;;;;;;5015676;28;20521;-82
2021/06/13 09:20:58;;;;;;;9.27;6.77;;;22.60;68.50;;;;;;5004890;28;20586;-80
2021/06/13 09:23:24;;;;;;;6.57;5.93;;;22.70;70.00;;;;;;5006905;28;20943;-82
2021/06/13 09:25:58;;;;;;;16.10;13.70;;;22.60;68.40;;;;;;5011428;28;20418;-80
2021/06/13 09:28:26;;;;;;;12.63;11.43;;;22.90;82.50;;;;;;5011288;28;20458;-81
2021/06/13 09:30:52;;;;;;;8.17;7.37;;;23.10;78.80;;;;;;5010605;28;20429;-81
2021/06/13 09:33:22;;;;;;;12.90;11.30;;;23.40;79.00;;;;;;5010467;28;20944;-80
2021/06/13 09:35:50;;;;;;;8.70;7.97;;;23.60;76.80;;;;;;5010097;28;20447;-81
2021/06/13 09:38:43;;;;;;;9.43;8.53;;;23.90;76.90;;;;;;5011853;28;20414;-81
2021/06/13 09:41:13;;;;;;;11.43;10.27;;;24.20;78.50;;;;;;5007507;28;20798;-81
2021/06/13 09:43:50;;;;;;;10.77;9.67;;;24.40;79.50;;;;;;5010533;28;20859;-80
2021/06/13 09:46:22;;;;;;;13.00;11.70;;;24.60;78.80;;;;;;5011875;28;20430;-81
2021/06/13 09:48:50;;;;;;;11.17;9.90;;;24.60;73.20;;;;;;5010808;28;20519;-81
2021/06/13 09:51:19;;;;;;;8.83;8.10;;;24.70;75.60;;;;;;5010650;28;20406;-81
2021/06/13 09:53:47;;;;;;;8.47;7.60;;;24.80;71.10;;;;;;5010267;28;20983;-81
2021/06/13 09:56:13;;;;;;;8.00;7.40;;;24.90;71.60;;;;;;5009105;28;20440;-81
2021/06/13 09:58:53;;;;;;;7.43;6.80;;;25.10;69.30;;;;;;5001177;28;20422;-82
2021/06/13 10:01:22;;;;;;;10.00;7.20;;;25.10;65.10;;;;;;5029996;28;20228;-82
2021/06/13 10:03:48;;;;;;;9.43;8.63;;;25.20;62.00;;;;;;5024616;28;20430;-83
2021/06/13 10:06:18;;;;;;;7.43;6.73;;;25.20;68.40;;;;;;5010498;28;20886;-85
2021/06/13 10:08:45;;;;;;;6.87;6.27;;;25.30;67.50;;;;;;5001117;28;20461;-80
2021/06/13 10:11:11;;;;;;;7.73;7.03;;;24.80;58.40;;;;;;5011407;28;20438;-78
2021/06/13 10:13:39;;;;;;;7.97;6.30;;;24.70;67.10;;;;;;5010533;28;20428;-78
2021/06/13 10:16:05;;;;;;;7.73;6.80;;;24.90;69.00;;;;;;5014476;28;20433;-79
2021/06/13 10:18:31;;;;;;;7.40;6.63;;;25.00;66.90;;;;;;5014231;28;20420;-79
2021/06/13 10:21:13;;;;;;;7.20;5.80;;;25.10;66.90;;;;;;5013346;28;20203;-80
2021/06/13 10:23:42;;;;;;;9.30;7.50;;;25.30;65.70;;;;;;5018292;28;20209;-79
2021/06/13 10:26:08;;;;;;;7.67;6.87;;;25.30;63.40;;;;;;5017801;28;20430;-80
2021/06/13 10:28:34;;;;;;;7.13;6.53;;;25.40;60.00;;;;;;5010444;28;20461;-80
2021/06/13 10:31:04;;;;;;;6.97;6.30;;;25.40;60.60;;;;;;5013934;28;20983;-79
2021/06/13 10:33:30;;;;;;;6.40;5.90;;;25.40;62.00;;;;;;5013322;28;20512;-85
2021/06/13 10:36:01;;;;;;;7.03;6.33;;;25.50;61.80;;;;;;5015764;28;20437;-82
2021/06/13 10:38:30;;;;;;;6.97;6.30;;;25.20;60.50;;;;;;5008089;28;20426;-81
2021/06/13 10:40:57;;;;;;;7.17;6.47;;;25.30;64.10;;;;;;5012496;28;20426;-79
2021/06/13 10:43:26;;;;;;;187.97;170.20;;;25.40;67.40;;;;;;5013023;28;20418;-80
2021/06/13 10:46:02;;;;;;;104.17;94.50;;;25.60;64.10;;;;;;5013413;28;20426;-79
2021/06/13 10:48:43;;;;;;;13.30;12.20;;;25.60;60.90;;;;;;5005498;28;20491;-80
2021/06/13 10:51:41;;;;;;;7.57;6.80;;;25.70;60.30;;;;;;5023437;28;20488;-78
2021/06/13 10:54:27;;;;;;;6.73;6.17;;;25.60;62.50;;;;;;5012287;28;20426;-85
2021/06/13 10:57:12;;;;;;;6.73;6.13;;;25.60;56.80;;;;;;5011338;28;20429;-78
2021/06/13 10:59:40;;;;;;;6.47;5.90;;;25.70;59.70;;;;;;5011747;28;20791;-80
2021/06/13 11:02:17;;;;;;;6.80;6.13;;;25.70;58.30;;;;;;5016789;28;20421;-81
2021/06/13 11:04:53;;;;;;;6.20;5.70;;;25.70;58.20;;;;;;5013036;28;20909;-80
2021/06/13 11:07:34;;;;;;;6.10;5.63;;;25.60;60.80;;;;;;5014144;28;20472;-80
2021/06/13 11:10:06;;;;;;;7.00;5.03;;;25.60;61.10;;;;;;5008619;28;20425;-81
2021/06/13 11:12:48;;;;;;;6.43;5.90;;;25.70;59.70;;;;;;5010052;28;20465;-81
2021/06/13 11:15:22;;;;;;;8.27;7.47;;;25.80;59.00;;;;;;5013893;28;20421;-80
2021/06/13 11:17:54;;;;;;;6.97;6.00;;;25.90;61.30;;;;;;5012700;28;20499;-81
2021/06/13 11:20:34;;;;;;;58.33;47.80;;;25.90;58.70;;;;;;5013901;28;20429;-81
2021/06/13 11:23:05;;;;;;;45.27;37.97;;;25.90;58.00;;;;;;5012919;28;20512;-81
2021/06/13 11:25:35;;;;;;;7.17;6.47;;;25.90;58.50;;;;;;5012562;28;20513;-82
2021/06/13 11:28:11;;;;;;;372.43;303.57;;;26.00;57.30;;;;;;5012922;28;20462;-80
2021/06/13 11:30:40;;;;;;;51.40;43.80;;;26.00;58.00;;;;;;5012638;28;20786;-80
2021/06/13 11:33:07;;;;;;;11.70;10.60;;;26.10;58.30;;;;;;5012235;28;20921;-79
2021/06/13 11:35:44;;;;;;;6.60;6.10;;;26.00;61.30;;;;;;5012386;28;20426;-80
2021/06/13 11:38:11;;;;;;;6.37;5.77;;;26.00;59.30;;;;;;5005332;28;20437;-80
2021/06/13 11:40:45;;;;;;;6.13;5.70;;;26.10;59.00;;;;;;5011804;28;20434;-80
2021/06/13 11:43:12;;;;;;;6.10;5.70;;;26.10;60.80;;;;;;4996420;28;20414;-80
2021/06/13 11:45:38;;;;;;;5.63;5.17;;;26.10;57.70;;;;;;5008788;28;20445;-80
2021/06/13 11:48:28;;;;;;;6.20;5.80;;;26.20;58.50;;;;;;5012696;28;20862;-79
2021/06/13 11:51:14;;;;;;;5.77;5.27;;;26.20;57.80;;;;;;5012206;28;20230;-80
2021/06/13 11:54:06;;;;;;;6.13;5.60;;;26.10;52.60;;;;;;5011315;28;20782;-80
2021/06/13 11:56:39;;;;;;;5.43;4.93;;;26.00;57.30;;;;;;5003460;28;20481;-81
2021/06/13 11:59:14;;;;;;;5.30;4.80;;;26.00;55.50;;;;;;5013200;28;20493;-80
2021/06/13 12:01:44;;;;;;;6.60;5.87;;;26.00;53.20;;;;;;5012719;28;20823;-80
2021/06/13 12:04:15;;;;;;;8.47;5.90;;;26.10;57.30;;;;;;5011255;28;20483;-82
2021/06/13 12:06:42;;;;;;;5.57;5.13;;;26.10;56.00;;;;;;5009253;28;20785;-79
2021/06/13 12:09:13;;;;;;;6.67;6.17;;;26.10;57.00;;;;;;5012062;28;20465;-79
2021/06/13 12:11:40;;;;;;;8.60;6.17;;;26.20;55.70;;;;;;5008654;28;20553;-79
2021/06/13 12:14:28;;;;;;;6.60;6.00;;;26.20;55.60;;;;;;5012017;28;20437;-79
2021/06/13 12:16:59;;;;;;;5.93;5.27;;;26.30;56.40;;;;;;5011923;28;20955;-79
2021/06/13 12:19:31;;;;;;;5.90;5.40;;;26.30;55.50;;;;;;5012825;28;20441;-79
2021/06/13 12:22:30;;;;;;;5.57;5.07;;;26.30;56.50;;;;;;5010678;28;20470;-79
2021/06/13 12:27:44;;;;;;;10.97;5.50;;;26.30;60.10;;;;;;5011706;28;20511;-79
2021/06/13 12:30:24;;;;;;;6.77;6.20;;;26.30;59.30;;;;;;5010612;28;20433;-77
2021/06/13 12:32:56;;;;;;;6.07;5.50;;;26.30;57.70;;;;;;5011220;28;20418;-76
2021/06/13 12:35:29;;;;;;;6.57;5.93;;;26.20;55.90;;;;;;5011719;28;20432;-78
2021/06/13 12:38:01;;;;;;;5.80;5.30;;;26.40;56.50;;;;;;5011534;28;20480;-78
2021/06/13 12:40:28;;;;;;;6.20;5.70;;;26.40;58.50;;;;;;5015817;28;20441;-80
2021/06/13 12:42:54;;;;;;;541.77;474.27;;;26.50;57.10;;;;;;5010846;28;20426;-79
2021/06/13 12:45:20;;;;;;;34.13;29.83;;;26.60;59.30;;;;;;5011546;28;20887;-79
2021/06/13 12:47:49;;;;;;;6.30;5.83;;;26.60;55.80;;;;;;5010827;28;20913;-80
2021/06/13 12:50:27;;;;;;;5.97;5.43;;;26.70;56.60;;;;;;5011008;28;20473;-84
2021/06/13 12:52:56;;;;;;;5.80;5.30;;;26.70;50.70;;;;;;5007861;28;20473;-80
2021/06/13 12:55:22;;;;;;;5.10;4.80;;;26.50;53.60;;;;;;5011691;28;20425;-80